Hauptseite
METAR-TAF:

METAR-TAF

Flughäfen :

Militärflugplatz Koksijde

Koksijde, Belgien

Breite: 51-05N, Länge: 002-39E, Höhe: 4 m

Beobachtung

Neuester Wetterbericht von vor 28 Minuten, um 01:55 UTC
Wind 8 kt aus Ost/Nordost
Temperatur 2°C
Luftfeuchtigkeit 80%
Luftdruck 1028 hPa
Sichtweite: 6000 m

METAR: EBFN 180155Z AUTO 07008KT 6000 NCD 02/M01 Q1028 WHT

Zeit: 03:23 (02:23 UTC)

Prognose

Neuester Wetterbericht von vor 10 Stunden und 42 Minuten, um 15:41 UTC
Gültige Prognose vom 17 um 19 UTC bis 18 um 07 UTC
Wind 7 kt aus Ost
Sichtweite: 8000 m
Himmel klar
Zeitweise
vom 17 um 19 UTC bis 18 um 07 UTC
Sichtweite: 5000 m
feuchter Dunst
Zeitweise
vom 17 um 02 UTC bis 18 um 07 UTC
Sichtweite: 3000 m
feuchter Dunst

TAF: EBFN 171541Z 1719/1807 09007KT 8000 SKC TEMPO 1719/1807 5000 BR TEMPO 1702/1807 3000 BR

Wetterbeobachtungen und Prognosen von mehr als 4000 Flughäfen (METAR und TAF Bericht).

Die verfügbaren Stationen werden durch gelbe und rote Markierungen auf der Karte dargestellt.

Führen Sie die Maus auf sie, um den Namen der Station zu sehen.

Darauf klicken, um die Beobachtung von Wetterbeobachtungen und Prognosen zu sehen.

Um die Karte zu ändern : klicken Sie auf den grünen Tasten mit einem schwarzen Kreuz Zum Vergrößern, auf den grünen Button mit einem Gedankenstrich zu verkleinern, oder auf die grünen Pfeile für benachbarte Karten.


METAR-TAF: